Latest Weather Observations for Broken Hill Airport

IDN60801

Issued at 4:32 pm EDT Wednesday 1 April 2015 (issued every 30 minutes, with the page automatically refreshed every 10 minutes)

About weather observations | Map of weather stations | Latest weather observations for NSW | Other Formats
Station Details ID: 047048 Name: BROKEN HILL AIRPORT AWS Lat: -32.00 Lon: 141.47 Height: 281.3 m
Data from the previous 72 hours. | See also: Recent months for locations in New South Wales
Date/Time
EDT
Temp
°C
App
Temp
°C
Dew
Point
Rel
Hum
%
Delta-T
°C
Wind Press
QNH
hPa
Press
MSL
hPa
Rain
since 9 am
mm
Dir
 
Spd
km/h
Gust
km/h
Spd
kts
Gust
kts
01/04:30pm 31.3 26.2 0.6 14 15.1 WNW 17 28 9 15 1015.7 1015.0 0.0
01/04:00pm 31.8 26.7 1.0 14 15.3 WNW 17 35 9 19 1015.9 1015.2 0.0
01/03:30pm 31.8 26.6 0.0 13 15.6 WNW 17 28 9 15 1016.3 1015.6 0.0
01/03:00pm 31.6 26.9 0.9 14 15.2 NW 15 22 8 12 1016.7 1016.0 0.0
01/02:30pm 31.0 25.5 0.4 14 15.0 WNW 19 26 10 14 1017.1 1016.4 0.0
01/02:00pm 31.6 27.3 0.9 14 15.2 NNW 13 22 7 12 1017.4 1016.7 0.0
01/01:30pm 30.9 25.4 0.3 14 15.0 NW 19 26 10 14 1017.9 1017.3 0.0
01/01:00pm 30.5 25.4 1.0 15 14.5 N 17 24 9 13 1018.3 1017.7 0.0
01/12:30pm 29.8 26.3 1.3 16 14.1 NE 9 20 5 11 1018.8 1018.2 0.0
01/12:00pm 29.5 26.1 1.9 17 13.7 N 9 17 5 9 1019.1 1018.5 0.0
01/11:30am 29.2 24.3 1.7 17 13.6 NNE 17 20 9 11 1019.4 1018.7 0.0
01/11:00am 28.1 23.3 4.4 22 12.2 NNE 19 26 10 14 1019.7 1019.0 0.0
01/10:30am 26.2 21.3 5.2 26 10.9 NNE 20 28 11 15 1019.9 1018.7 0.0
01/10:00am 24.9 20.2 5.2 28 10.1 NNE 19 24 10 13 1019.9 1018.7 0.0
01/09:30am 24.0 19.2 4.9 29 9.7 NNE 19 22 10 12 1019.9 1018.7 0.0
01/09:00am 22.2 17.7 4.3 31 8.8 NNE 17 20 9 11 1019.8 1018.6 0.0
01/08:30am 20.9 16.7 4.0 33 8.3 NNE 15 19 8 10 1019.6 1018.4 0.0
01/08:00am 17.5 13.2 3.0 38 6.8 NNE 15 15 8 8 1019.4 1018.2 0.0
01/07:30am 16.2 11.9 1.1 36 6.7 NE 13 17 7 9 1019.4 1018.2 0.0
01/07:00am 16.7 12.2 2.3 38 6.6 NE 15 17 8 9 1019.1 1018.0 0.0
01/06:30am 15.7 11.0 1.1 37 6.4 NE 15 17 8 9 1019.0 1017.9 0.0
01/06:00am 14.9 10.1 0.4 37 6.3 NE 15 15 8 8 1018.9 1017.8 0.0
01/05:30am 17.2 12.4 0.4 32 7.4 NE 15 17 8 9 1018.8 1017.7 0.0
01/05:00am 18.3 13.6 0.9 31 7.8 NE 15 17 8 9 1018.7 1017.6 0.0
01/04:30am 17.8 12.6 0.0 30 7.8 NE 17 19 9 10 1018.8 1017.7 0.0
01/04:00am 19.2 14.0 0.3 28 8.4 NE 17 19 9 10 1019.1 1018.0 0.0
01/03:30am 17.0 12.4 -1.1 29 7.7 ENE 13 15 7 8 1019.7 1018.5 0.0
01/03:00am 17.1 12.5 -1.1 29 7.8 ENE 13 15 7 8 1020.3 1019.1 0.0
01/02:30am 15.8 10.7 -2.2 29 7.4 NE 15 15 8 8 1020.7 1019.6 0.0
01/02:00am 20.6 16.2 0.4 26 9.1 NE 13 15 7 8 1021.2 1020.1 0.0
01/01:30am 20.4 15.1 -0.3 25 9.3 NE 17 17 9 9 1021.3 1020.2 0.0
01/01:00am 20.2 15.3 -0.4 25 9.1 ENE 15 15 8 8 1021.5 1020.4 0.0
01/12:30am 20.4 15.9 -0.3 25 9.2 ENE 13 15 7 8 1021.7 1020.6 0.0
01/12:00am 20.5 15.9 -0.7 24 9.4 E 13 15 7 8 1021.7 1020.6 0.0
 
Date/Time
EDT
Temp
°C
App
Temp
°C
Dew
Point
Rel
Hum
%
Delta-T
°C
Wind Press
QNH
hPa
Press
MSL
hPa
Rain
since 9 am
mm
Dir
 
Spd
km/h
Gust
km/h
Spd
kts
Gust
kts
31/11:30pm 20.8 15.5 -0.5 24 9.5 E 17 17 9 9 1021.6 1020.5 0.0
31/11:00pm 20.0 15.4 -1.2 24 9.2 ESE 13 15 7 8 1021.7 1020.6 0.0
31/10:30pm 20.8 16.3 -0.5 24 9.5 ESE 13 15 7 8 1021.6 1020.5 0.0
31/10:00pm 20.3 15.6 -1.5 23 9.5 ESE 13 15 7 8 1021.4 1020.3 0.0
31/09:30pm 21.9 17.3 -0.8 22 10.1 E 13 13 7 7 1021.2 1020.1 0.0
31/09:00pm 22.8 18.3 -0.6 21 10.6 ESE 13 17 7 9 1021.1 1020.0 0.0
31/08:30pm 23.5 18.9 -1.4 19 11.1 ESE 13 15 7 8 1021.1 1020.0 0.0
31/08:00pm 25.0 20.0 -0.9 18 11.8 ESE 15 17 8 9 1020.9 1019.8 0.0
31/07:30pm 26.7 22.2 -0.3 17 12.7 SE 13 15 7 8 1021.0 1019.9 0.0
31/07:00pm 28.5 23.2 -0.6 15 13.7 SE 17 20 9 11 1020.8 1019.7 0.0
31/06:30pm 29.2 24.0 -0.1 15 14.0 ESE 17 22 9 12 1020.6 1019.5 0.0
31/06:00pm 29.4 24.4 -0.9 14 14.3 SE 15 24 8 13 1020.3 1019.1 0.0
31/05:30pm 29.9 25.0 -0.5 14 14.6 ESE 15 24 8 13 1020.1 1018.9 0.0
31/05:00pm 30.3 24.7 -0.1 14 14.7 ESE 19 28 10 15 1020.1 1018.9 0.0
31/04:30pm 29.7 24.4 -0.6 14 14.5 ESE 17 32 9 17 1020.3 1019.1 0.0
31/04:00pm 29.5 24.7 0.2 15 14.1 E 15 30 8 16 1020.7 1019.6 0.0
31/03:30pm 29.3 23.7 0.0 15 14.1 E 19 35 10 19 1021.0 1019.9 0.0
31/03:00pm 29.9 24.4 0.5 15 14.3 ESE 19 32 10 17 1021.5 1020.4 0.0
31/02:30pm 29.0 24.3 0.7 16 13.8 E 15 26 8 14 1021.9 1020.8 0.0
31/02:00pm 28.6 23.6 1.2 17 13.4 ESE 17 26 9 14 1022.4 1021.3 0.0
31/01:30pm 29.1 24.1 1.6 17 13.6 ESE 17 30 9 16 1023.1 1021.9 0.0
31/01:00pm 28.2 22.3 1.7 18 13.0 E 22 35 12 19 1023.6 1022.4 0.0
31/12:30pm 27.3 21.8 1.7 19 12.5 E 20 32 11 17 1024.1 1023.0 0.0
31/12:00pm 27.2 21.4 2.3 20 12.3 E 22 32 12 17 1024.4 1023.3 0.0
31/11:30am 27.0 21.9 2.8 21 12.0 E 19 28 10 15 1025.0 1023.9 0.0
31/11:00am 26.5 21.7 2.4 21 11.8 E 17 24 9 13 1025.3 1024.2 0.0
31/10:30am 25.2 20.8 2.6 23 11.1 E 15 20 8 11 1025.3 1024.2 0.0
31/10:00am 21.9 19.5 4.5 32 8.6 S 6 7 3 4 1025.1 1024.0 0.0
31/09:30am 19.7 16.8 4.6 37 7.4 SSW 9 9 5 5 1025.2 1024.1 0.0
31/09:00am 17.3 14.8 4.6 43 6.1 SW 7 9 4 5 1024.8 1023.7 0.0
31/08:30am 15.2 12.2 4.3 48 5.1 S 9 15 5 8 1024.4 1023.3 0.0
31/08:00am 14.4 12.7 3.8 49 4.9 S 2 6 1 3 1024.2 1023.1 0.0
31/07:30am 14.4 12.0 4.1 50 4.8 SSW 6 7 3 4 1023.9 1022.8 0.0
31/07:00am 14.4 11.9 3.5 48 5.0 SSW 6 7 3 4 1023.8 1022.7 0.0
31/06:30am 14.8 13.4 3.3 46 5.3 CALM 0 0 0 0 1023.6 1022.4 0.0
31/06:00am 15.1 13.6 3.0 44 5.5 CALM 0 0 0 0 1023.3 1022.1 0.0
31/05:30am 14.8 11.9 2.7 44 5.5 WSW 7 9 4 5 1023.1 1021.9 0.0
31/05:00am 15.3 12.4 2.5 42 5.8 SW 7 9 4 5 1022.8 1021.7 0.0
31/04:30am 15.7 12.7 2.2 40 6.1 SW 7 7 4 4 1023.0 1021.8 0.0
31/04:00am 16.1 13.4 2.5 40 6.2 SW 6 9 3 5 1023.2 1022.0 0.0
31/03:30am 15.7 12.7 2.2 40 6.1 SSW 7 11 4 6 1023.4 1022.2 0.0
31/03:00am 17.1 12.9 1.9 36 6.9 SSE 13 15 7 8 1023.5 1022.3 0.0
31/02:30am 19.1 14.7 2.5 33 7.8 SE 15 17 8 9 1023.6 1022.4 0.0
31/02:00am 19.1 14.6 2.0 32 7.9 SE 15 17 8 9 1023.8 1022.7 0.0
31/01:30am 19.2 14.7 2.1 32 7.9 SE 15 17 8 9 1024.0 1022.9 0.0
31/01:00am 18.7 14.0 1.2 31 7.9 SE 15 15 8 8 1024.2 1023.1 0.0
31/12:30am 18.5 14.2 1.1 31 7.8 SE 13 15 7 8 1024.2 1023.1 0.0
31/12:00am 18.4 14.5 1.0 31 7.8 SE 11 11 6 6 1024.3 1023.2 0.0
 
Date/Time
EDT
Temp
°C
App
Temp
°C
Dew
Point
Rel
Hum
%
Delta-T
°C
Wind Press
QNH
hPa
Press
MSL
hPa
Rain
since 9 am
mm
Dir
 
Spd
km/h
Gust
km/h
Spd
kts
Gust
kts
30/11:30pm 18.3 13.9 0.4 30 8.0 ESE 13 15 7 8 1024.3 1023.2 0.0
30/11:00pm 18.8 14.9 1.3 31 7.9 ESE 11 13 6 7 1024.3 1023.2 0.0
30/10:30pm 20.1 15.5 1.5 29 8.6 SE 15 15 8 8 1024.3 1023.2 0.0
30/10:00pm 21.2 16.8 2.5 29 8.8 SE 15 19 8 10 1024.2 1023.1 0.0
30/09:30pm 20.9 16.7 1.7 28 8.9 SE 13 13 7 7 1024.0 1022.9 0.0
30/09:00pm 21.4 17.7 2.2 28 9.0 SE 11 13 6 7 1023.8 1022.7 0.0
30/08:30pm 22.2 18.9 2.3 27 9.5 SE 9 11 5 6 1023.6 1022.4 0.0
30/08:00pm 23.4 19.7 2.3 25 10.1 SSE 11 13 6 7 1023.2 1022.0 0.0
30/07:30pm 25.1 20.3 2.5 23 11.0 SSE 17 20 9 11 1023.1 1021.9 0.0
30/07:00pm 26.0 21.6 2.7 22 11.5 SSE 15 24 8 13 1022.7 1021.6 0.0
30/06:30pm 26.4 21.7 3.0 22 11.6 S 17 24 9 13 1022.5 1021.4 0.0
30/06:00pm 26.5 21.7 2.4 21 11.8 S 17 26 9 14 1022.3 1021.2 0.0
30/05:30pm 26.9 21.7 2.7 21 12.0 S 19 30 10 16 1022.2 1021.1 0.0
30/05:00pm 26.8 22.5 3.3 22 11.7 S 15 24 8 13 1022.2 1021.1 0.0
30/04:30pm 27.2 23.4 3.7 22 11.9 SSW 13 22 7 12 1022.2 1021.1 0.0
30/04:00pm 26.6 22.7 3.2 22 11.7 SSE 13 19 7 10 1022.4 1021.3 0.0
30/03:30pm 26.1 21.4 3.4 23 11.3 SSW 17 26 9 14 1022.6 1021.5 0.0
30/03:00pm 26.3 22.4 3.5 23 11.4 S 13 20 7 11 1023.1 1021.9 0.0
30/02:30pm 25.5 22.0 3.5 24 11.0 SE 11 20 6 11 1023.5 1022.3 0.0
30/02:00pm 26.2 23.2 4.1 24 11.2 ESE 9 17 5 9 1023.7 1022.6 0.0
30/01:30pm 25.7 21.6 4.2 25 10.9 SSE 15 24 8 13 1024.0 1022.9 0.0
30/01:00pm 24.9 21.6 4.6 27 10.3 SE 11 24 6 13 1024.4 1023.3 0.0
30/12:30pm 24.1 20.4 4.5 28 9.8 S 13 20 7 11 1024.7 1023.6 0.0
30/12:00pm 23.9 20.6 4.3 28 9.8 SSE 11 19 6 10 1025.0 1023.9 0.0
30/11:30am 23.2 20.0 5.1 31 9.2 ESE 11 19 6 10 1025.3 1024.2 0.0
30/11:00am 23.2 19.2 6.5 34 8.6 E 17 24 9 13 1025.4 1024.3 0.0
30/10:30am 22.5 18.4 6.3 35 8.4 ESE 17 24 9 13 1025.5 1024.4 0.0
30/10:00am 21.6 17.8 5.9 36 7.9 ESE 15 20 8 11 1025.2 1024.1 0.0
30/09:30am 20.2 17.3 6.5 41 7.0 SE 11 15 6 8 1025.0 1023.9 0.0
30/09:00am 18.8 16.8 8.7 52 5.3 ESE 9 15 5 8 1024.6 1023.5 0.0
30/08:30am 16.4 16.0 9.6 64 3.6 SSE 2 7 1 4 1024.3 1023.2 0.0
30/08:00am 15.4 14.2 9.7 69 3.0 SSE 6 7 3 4 1024.0 1022.9 0.0
30/07:30am 15.6 14.5 9.9 69 3.0 S 6 9 3 5 1023.9 1022.8 0.0
30/07:00am 15.8 14.1 9.9 68 3.1 SSW 9 11 5 6 1023.9 1022.8 0.0
30/06:30am 15.9 14.5 9.6 66 3.3 SSW 7 11 4 6 1023.8 1022.7 0.0
30/06:00am 15.6 14.7 9.3 66 3.3 WSW 4 11 2 6 1023.5 1022.3 0.0
30/05:30am 15.5 15.5 9.8 69 3.0 CALM 0 0 0 0 1023.2 1022.0 0.0
30/05:00am 15.1 15.1 9.9 71 2.7 CALM 0 0 0 0 1023.2 1022.0 0.0
30/04:30am 14.9 14.5 9.9 72 2.6 W 2 6 1 3 1023.2 1022.0 0.0
30/04:00am 14.4 13.1 9.8 74 2.4 WNW 7 9 4 5 1023.4 1022.2 0.0
30/03:30am 13.7 13.5 9.0 73 2.4 CALM 0 0 0 0 1023.5 1022.3 0.0
30/03:00am 14.4 13.3 10.0 75 2.3 W 6 7 3 4 1023.6 1022.4 0.0
30/02:30am 14.2 12.8 9.4 73 2.5 WSW 7 9 4 5 1023.6 1022.4 0.0
30/02:00am 14.7 13.2 9.3 70 2.8 WSW 7 9 4 5 1024.0 1022.9 0.0
30/01:30am 15.1 12.6 8.3 64 3.5 SW 11 13 6 7 1024.1 1023.0 0.0
30/01:00am 17.0 15.7 7.6 54 4.8 NE 4 7 2 4 1023.9 1022.8 0.0
30/12:30am 17.5 17.1 8.1 54 4.8 CALM 0 0 0 0 1024.0 1022.9 0.0
30/12:00am 17.9 16.1 7.9 52 5.1 NE 7 9 4 5 1024.1 1023.0 0.0
 
Date/Time
EDT
Temp
°C
App
Temp
°C
Dew
Point
Rel
Hum
%
Delta-T
°C
Wind Press
QNH
hPa
Press
MSL
hPa
Rain
since 9 am
mm
Dir
 
Spd
km/h
Gust
km/h
Spd
kts
Gust
kts
29/11:30pm 17.9 16.0 7.6 51 5.3 ENE 7 9 4 5 1024.1 1023.0 0.0
29/11:00pm 18.3 15.8 8.0 51 5.3 ENE 11 13 6 7 1024.2 1023.1 0.0
29/10:30pm 18.1 16.5 8.7 54 4.9 ESE 7 9 4 5 1024.4 1023.3 0.0
29/10:00pm 18.9 16.9 8.8 52 5.3 S 9 11 5 6 1024.5 1023.4 0.0
29/09:30pm 18.9 15.9 9.1 53 5.2 SSW 15 20 8 11 1024.5 1023.4 0.0
29/09:00pm 20.5 17.1 6.1 39 7.3 SW 13 20 7 11 1024.1 1023.0 0.0
29/08:30pm 21.1 18.3 5.1 35 8.0 SW 9 11 5 6 1023.4 1022.2 0.0
29/08:00pm 21.4 18.5 4.9 34 8.2 SW 9 11 5 6 1023.2 1022.0 0.0
29/07:30pm 21.7 19.2 4.7 33 8.5 SSW 7 7 4 4 1023.0 1021.8 0.0
29/07:00pm 22.1 19.6 4.6 32 8.7 S 7 11 4 6 1022.7 1021.6 0.0
29/06:30pm 22.5 19.6 4.5 31 8.9 S 9 13 5 7 1022.4 1021.3 0.0
29/06:00pm 23.2 20.9 4.7 30 9.3 WNW 6 9 3 5 1022.5 1021.4 0.0
29/05:30pm 23.0 19.8 5.0 31 9.1 WSW 11 17 6 9 1022.7 1021.6 0.0

Other Formats:

Comma delimited format used in spreadsheet applications
http://www.bom.gov.au/fwo/IDN60801/IDN60801.94691.axf

JavaScript Object Notation format (JSON) in row-major order
http://www.bom.gov.au/fwo/IDN60801/IDN60801.94691.json